createdAt,value
2018-08-03T00:02:02.649Z,21.14
2018-08-03T00:04:33.173Z,21.20
2018-08-03T00:07:04.023Z,21.12
2018-08-03T00:09:34.867Z,21.09
2018-08-03T00:12:05.559Z,21.13
2018-08-03T00:14:36.150Z,21.11
2018-08-03T00:17:06.884Z,21.07
2018-08-03T00:19:37.332Z,21.04
2018-08-03T00:22:07.950Z,21.10
2018-08-03T00:24:38.554Z,21.03
2018-08-03T00:27:09.107Z,20.97
2018-08-03T00:29:39.696Z,20.91
2018-08-03T00:32:10.237Z,20.91
2018-08-03T00:34:40.849Z,20.90
2018-08-03T00:37:13.244Z,20.92
2018-08-03T00:39:44.175Z,20.92
2018-08-03T00:42:14.754Z,20.84
2018-08-03T00:44:46.394Z,20.80
2018-08-03T00:47:16.972Z,20.79
2018-08-03T00:49:47.572Z,20.75
2018-08-03T00:52:18.251Z,20.75
2018-08-03T00:54:49.091Z,20.74
2018-08-03T00:57:20.309Z,20.75
2018-08-03T00:59:50.866Z,20.78
2018-08-03T01:02:21.446Z,20.78
2018-08-03T01:04:52.128Z,20.72
2018-08-03T01:07:22.846Z,20.71
2018-08-03T01:09:53.673Z,20.73
2018-08-03T01:12:24.245Z,20.73
2018-08-03T01:14:55.464Z,20.71
2018-08-03T01:17:25.795Z,20.70
2018-08-03T01:19:56.384Z,20.71
2018-08-03T01:22:26.905Z,20.67
2018-08-03T01:24:57.508Z,20.66
2018-08-03T01:27:27.548Z,20.70
2018-08-03T01:29:58.069Z,20.64
2018-08-03T01:32:28.623Z,20.59
2018-08-03T01:34:59.424Z,20.55
2018-08-03T01:37:30.068Z,20.55
2018-08-03T01:40:00.424Z,20.59
2018-08-03T01:42:30.964Z,20.56
2018-08-03T01:45:01.422Z,20.53
2018-08-03T01:47:31.955Z,20.49
2018-08-03T01:50:02.419Z,20.44
2018-08-03T01:52:32.946Z,20.40
2018-08-03T01:55:03.498Z,20.38
2018-08-03T01:57:34.108Z,20.39
2018-08-03T02:00:04.935Z,20.40
2018-08-03T02:02:36.456Z,20.38
2018-08-03T02:05:06.555Z,20.38
2018-08-03T02:07:37.192Z,20.35
2018-08-03T02:10:07.719Z,20.35
2018-08-03T02:12:38.669Z,20.37
2018-08-03T02:15:09.498Z,20.41
2018-08-03T02:17:41.503Z,20.44
2018-08-03T02:20:13.012Z,20.44
2018-08-03T02:22:44.038Z,20.53
2018-08-03T02:25:14.655Z,20.53
2018-08-03T02:27:45.180Z,20.52
2018-08-03T02:30:15.722Z,20.53
2018-08-03T02:32:46.280Z,20.45
2018-08-03T02:35:16.773Z,20.39
2018-08-03T02:37:47.118Z,20.29
2018-08-03T02:40:17.093Z,20.22
2018-08-03T02:42:47.780Z,20.20
2018-08-03T02:45:18.188Z,20.10
2018-08-03T02:47:48.785Z,20.06
2018-08-03T02:50:19.265Z,20.03
2018-08-03T02:52:49.760Z,20.00
2018-08-03T02:55:20.295Z,20.10
2018-08-03T02:57:50.750Z,20.21
2018-08-03T03:00:21.397Z,20.28
2018-08-03T03:02:52.439Z,20.29
2018-08-03T03:05:22.937Z,20.35
2018-08-03T03:07:53.921Z,20.34
2018-08-03T03:10:24.605Z,20.31
2018-08-03T03:12:55.273Z,20.32
2018-08-03T03:15:25.865Z,20.37
2018-08-03T03:17:55.804Z,20.37
2018-08-03T03:20:25.635Z,20.35
2018-08-03T03:22:55.697Z,20.34
2018-08-03T03:25:26.148Z,20.27
2018-08-03T03:27:56.735Z,20.20
2018-08-03T03:30:27.344Z,20.15
2018-08-03T03:32:57.926Z,20.11
2018-08-03T03:35:28.460Z,20.03
2018-08-03T03:37:58.886Z,19.99
2018-08-03T03:40:30.111Z,19.98
2018-08-03T03:43:00.431Z,19.96
2018-08-03T03:45:30.912Z,19.95
2018-08-03T03:48:01.428Z,19.97
2018-08-03T03:50:32.172Z,19.95
2018-08-03T03:53:02.657Z,20.01
2018-08-03T03:55:33.258Z,20.08
2018-08-03T03:58:04.117Z,20.15
2018-08-03T04:00:34.807Z,20.15
2018-08-03T04:03:05.396Z,20.15
2018-08-03T04:05:35.963Z,20.14
2018-08-03T04:08:06.580Z,20.17
2018-08-03T04:10:36.597Z,20.19
2018-08-03T04:13:07.433Z,20.22
2018-08-03T04:15:38.075Z,20.25
2018-08-03T04:18:16.779Z,20.27
2018-08-03T04:20:47.719Z,20.33
2018-08-03T04:23:18.090Z,20.40
2018-08-03T04:25:48.675Z,20.48
2018-08-03T04:28:19.088Z,20.54
2018-08-03T04:30:49.598Z,20.61
2018-08-03T04:33:20.281Z,20.71
2018-08-03T04:35:50.976Z,20.79
2018-08-03T04:38:22.563Z,20.90
2018-08-03T04:40:53.374Z,21.00
2018-08-03T04:43:23.844Z,21.12
2018-08-03T04:45:54.469Z,21.23
2018-08-03T04:48:25.123Z,21.28
2018-08-03T04:50:55.731Z,21.22
2018-08-03T04:53:25.677Z,21.26
2018-08-03T04:55:56.190Z,21.34
2018-08-03T04:58:26.617Z,21.44
2018-08-03T05:00:57.096Z,21.59
2018-08-03T05:03:28.199Z,21.81
2018-08-03T05:05:59.018Z,22.03
2018-08-03T05:08:29.810Z,22.21
2018-08-03T05:11:00.453Z,22.44
2018-08-03T05:13:30.887Z,22.62
2018-08-03T05:16:01.470Z,22.82
2018-08-03T05:18:32.093Z,22.98
2018-08-03T05:21:02.193Z,23.06
2018-08-03T05:23:32.840Z,23.04
2018-08-03T05:26:03.541Z,23.09
2018-08-03T05:28:34.160Z,23.15
2018-08-03T05:31:05.036Z,23.23
2018-08-03T05:33:35.735Z,23.31
2018-08-03T05:36:06.379Z,23.37
2018-08-03T05:38:37.024Z,23.44
2018-08-03T05:41:07.819Z,23.38
2018-08-03T05:43:38.437Z,23.29
2018-08-03T05:46:09.514Z,23.35
2018-08-03T05:48:40.209Z,23.48
2018-08-03T05:51:10.601Z,23.66
2018-08-03T05:53:41.151Z,24.02
2018-08-03T05:56:12.056Z,24.94
2018-08-03T05:58:42.862Z,25.89
2018-08-03T06:01:13.582Z,26.50
2018-08-03T06:03:44.239Z,27.17
2018-08-03T06:06:14.818Z,27.78
2018-08-03T06:08:45.291Z,28.28
2018-08-03T06:11:16.042Z,28.88
2018-08-03T06:13:46.735Z,29.59
2018-08-03T06:16:18.794Z,29.90
2018-08-03T06:18:49.701Z,30.32
2018-08-03T06:21:24.107Z,30.81
2018-08-03T06:23:55.913Z,31.16
2018-08-03T06:26:26.792Z,30.88
2018-08-03T06:28:57.571Z,31.03
2018-08-03T06:31:28.292Z,30.37
2018-08-03T06:33:59.380Z,29.46
2018-08-03T06:36:30.083Z,28.75
2018-08-03T06:39:00.844Z,28.13
2018-08-03T06:41:31.837Z,27.66
2018-08-03T06:44:02.554Z,27.33
2018-08-03T06:46:33.451Z,27.11
2018-08-03T06:49:04.858Z,26.94
2018-08-03T06:51:35.649Z,27.09
2018-08-03T06:54:06.822Z,27.14
2018-08-03T06:56:37.596Z,27.22
2018-08-03T06:59:08.333Z,27.81
2018-08-03T07:01:39.638Z,28.75
2018-08-03T07:04:09.774Z,28.68
2018-08-03T07:06:42.112Z,28.42
2018-08-03T07:09:13.949Z,28.06
2018-08-03T07:11:44.527Z,28.04
2018-08-03T07:14:15.860Z,28.11
2018-08-03T07:16:46.953Z,28.30
2018-08-03T07:19:18.047Z,28.46
2018-08-03T07:21:49.280Z,28.65
2018-08-03T07:24:20.138Z,28.87
2018-08-03T07:26:51.800Z,29.12
2018-08-03T07:29:22.901Z,29.36
2018-08-03T07:31:53.823Z,29.64
2018-08-03T07:34:24.666Z,30.03
2018-08-03T07:36:55.578Z,31.16
2018-08-03T07:39:27.119Z,31.50
2018-08-03T07:41:57.900Z,32.33
2018-08-03T07:44:31.072Z,32.51
2018-08-03T07:47:02.533Z,32.71
2018-08-03T07:49:33.585Z,32.43
2018-08-03T07:52:04.416Z,31.79
2018-08-03T07:54:35.340Z,31.60
2018-08-03T07:57:06.251Z,31.23
2018-08-03T07:59:37.304Z,30.98
2018-08-03T08:02:07.825Z,31.64
2018-08-03T08:04:39.825Z,32.17
2018-08-03T08:07:12.667Z,32.66
2018-08-03T08:09:43.693Z,32.62
2018-08-03T08:12:14.424Z,32.25
2018-08-03T08:14:45.600Z,32.28
2018-08-03T08:17:16.448Z,33.36
2018-08-03T08:19:47.282Z,33.54
2018-08-03T08:22:18.050Z,33.07
2018-08-03T08:24:49.114Z,33.16
2018-08-03T08:27:20.442Z,32.96
2018-08-03T08:29:51.448Z,33.51
2018-08-03T08:32:22.438Z,34.66
2018-08-03T08:34:54.230Z,35.50
2018-08-03T08:37:25.792Z,36.05
2018-08-03T08:39:56.885Z,36.88
2018-08-03T08:42:28.139Z,37.31
2018-08-03T08:44:59.585Z,36.22
2018-08-03T08:47:32.217Z,34.87
2018-08-03T08:50:03.145Z,35.21
2018-08-03T08:52:34.786Z,35.32
2018-08-03T08:55:05.649Z,34.84
2018-08-03T08:57:36.593Z,35.38
2018-08-03T09:00:09.582Z,36.69
2018-08-03T09:02:40.978Z,37.49
2018-08-03T09:05:13.291Z,37.81
2018-08-03T09:07:44.217Z,37.94
2018-08-03T09:10:16.169Z,38.50
2018-08-03T09:12:47.727Z,38.30
2018-08-03T09:15:18.420Z,38.36
2018-08-03T09:17:48.817Z,38.06
2018-08-03T09:20:19.549Z,37.70
2018-08-03T09:22:50.878Z,37.71
2018-08-03T09:25:22.019Z,38.54
2018-08-03T09:27:52.945Z,36.90
2018-08-03T09:30:23.670Z,36.67
2018-08-03T09:32:54.084Z,38.34
2018-08-03T09:35:24.979Z,39.33
2018-08-03T09:37:58.642Z,39.54
2018-08-03T09:40:30.920Z,39.46
2018-08-03T09:43:01.729Z,39.44
2018-08-03T09:45:32.877Z,39.10
2018-08-03T09:48:03.803Z,39.42
2018-08-03T09:50:36.318Z,39.28
2018-08-03T09:53:09.372Z,38.19
2018-08-03T09:55:40.948Z,38.47
2018-08-03T09:58:11.957Z,37.98
2018-08-03T10:00:48.050Z,37.62
2018-08-03T10:03:19.183Z,37.90
2018-08-03T10:05:50.791Z,38.02
2018-08-03T10:08:21.817Z,37.41
2018-08-03T10:10:52.803Z,37.79
2018-08-03T10:13:27.192Z,37.45
2018-08-03T10:15:59.359Z,37.49
2018-08-03T10:18:30.579Z,37.04
2018-08-03T10:21:02.268Z,38.38
2018-08-03T10:23:33.473Z,39.13
2018-08-03T10:26:05.278Z,39.81
2018-08-03T10:28:37.106Z,39.78
2018-08-03T10:31:08.189Z,40.36
2018-08-03T10:33:38.835Z,40.16
2018-08-03T10:36:09.588Z,40.23
2018-08-03T10:38:42.423Z,40.23
2018-08-03T10:41:14.105Z,40.58
2018-08-03T10:43:46.682Z,40.80
2018-08-03T10:46:22.951Z,40.75
2018-08-03T10:48:58.573Z,40.50
2018-08-03T10:51:31.030Z,40.48
2018-08-03T10:54:03.227Z,39.51
2018-08-03T10:56:35.267Z,37.56
2018-08-03T10:59:07.813Z,36.93
2018-08-03T11:01:40.353Z,36.49
2018-08-03T11:04:13.001Z,36.42
2018-08-03T11:06:43.951Z,37.83
2018-08-03T11:09:15.893Z,39.23
2018-08-03T11:11:46.833Z,39.73
2018-08-03T11:14:17.953Z,40.39
2018-08-03T11:16:48.912Z,39.77
2018-08-03T11:19:20.118Z,39.30
2018-08-03T11:21:51.936Z,38.96
2018-08-03T11:24:22.713Z,38.57
2018-08-03T11:26:53.856Z,38.42
2018-08-03T11:29:25.417Z,39.40
2018-08-03T11:31:56.823Z,39.55
2018-08-03T11:34:27.584Z,39.58
2018-08-03T11:36:58.331Z,40.06
2018-08-03T11:39:28.544Z,40.03
2018-08-03T11:41:59.207Z,39.95
2018-08-03T11:44:31.074Z,40.89
2018-08-03T11:47:02.537Z,41.13
2018-08-03T11:49:33.657Z,40.60
2018-08-03T11:52:04.481Z,39.32
2018-08-03T11:54:34.686Z,39.66
2018-08-03T11:57:05.525Z,39.91
2018-08-03T11:59:37.063Z,40.13
2018-08-03T12:02:07.739Z,40.65
2018-08-03T12:04:40.432Z,40.70
2018-08-03T12:07:12.575Z,41.27
2018-08-03T12:09:44.692Z,41.04
2018-08-03T12:12:16.745Z,41.37
2018-08-03T12:14:47.762Z,41.45
2018-08-03T12:17:19.365Z,40.67
2018-08-03T12:19:51.631Z,39.04
2018-08-03T12:22:23.913Z,37.71
2018-08-03T12:24:54.568Z,36.63
2018-08-03T12:27:25.710Z,36.81
2018-08-03T12:29:57.368Z,37.98
2018-08-03T12:32:28.747Z,39.01
2018-08-03T12:34:59.587Z,39.61
2018-08-03T12:37:30.892Z,39.52
2018-08-03T12:40:02.377Z,38.92
2018-08-03T12:42:34.834Z,38.23
2018-08-03T12:45:06.137Z,38.12
2018-08-03T12:47:36.861Z,38.41
2018-08-03T12:50:10.091Z,39.24
2018-08-03T12:52:41.135Z,40.01
2018-08-03T12:55:11.813Z,40.49
2018-08-03T12:57:43.235Z,40.41
2018-08-03T13:00:15.228Z,40.65
2018-08-03T13:02:47.891Z,40.99
2018-08-03T13:05:20.539Z,41.02
2018-08-03T13:07:52.712Z,41.28
2018-08-03T13:10:26.119Z,41.30
2018-08-03T13:12:57.539Z,40.82
2018-08-03T13:15:29.358Z,40.48
2018-08-03T13:18:01.900Z,39.83
2018-08-03T13:20:33.157Z,39.65
2018-08-03T13:23:05.612Z,40.10
2018-08-03T13:25:37.264Z,40.63
2018-08-03T13:28:08.498Z,40.20
2018-08-03T13:30:39.602Z,39.51
2018-08-03T13:33:12.665Z,38.17
2018-08-03T13:35:44.658Z,37.51
2018-08-03T13:38:15.266Z,36.80
2018-08-03T13:40:46.060Z,36.06
2018-08-03T13:43:16.509Z,35.59
2018-08-03T13:45:47.509Z,35.46
2018-08-03T13:48:18.453Z,35.28
2018-08-03T13:50:50.108Z,35.17
2018-08-03T13:53:21.099Z,35.16
2018-08-03T13:55:52.106Z,35.42
2018-08-03T13:58:25.437Z,35.88
2018-08-03T14:01:11.476Z,35.61
2018-08-03T14:03:42.325Z,34.79
2018-08-03T14:06:13.518Z,33.67
2018-08-03T14:08:50.448Z,32.11
2018-08-03T14:11:22.519Z,31.66
2018-08-03T14:13:55.994Z,31.38
2018-08-03T14:16:33.834Z,31.40
2018-08-03T14:19:13.111Z,31.33
2018-08-03T14:21:50.993Z,31.47
2018-08-03T14:24:28.697Z,31.63
2018-08-03T14:27:01.132Z,31.64
2018-08-03T14:29:39.997Z,31.26
2018-08-03T14:32:14.667Z,31.06
2018-08-03T14:34:47.987Z,31.10
2018-08-03T14:37:19.776Z,31.29
2018-08-03T14:39:50.846Z,31.46
2018-08-03T14:42:21.560Z,31.80
2018-08-03T14:44:52.463Z,31.79
2018-08-03T14:47:23.464Z,31.75
2018-08-03T14:49:54.215Z,32.02
2018-08-03T14:52:24.939Z,31.91
2018-08-03T14:54:56.525Z,31.83
2018-08-03T14:57:27.300Z,31.88
2018-08-03T14:59:58.336Z,32.10
2018-08-03T15:02:29.077Z,32.13
2018-08-03T15:05:00.672Z,32.23
2018-08-03T15:07:32.569Z,32.18
2018-08-03T15:10:03.740Z,32.15
2018-08-03T15:12:34.804Z,32.08
2018-08-03T15:15:06.983Z,32.31
2018-08-03T15:17:41.559Z,32.52
2018-08-03T15:20:12.914Z,32.43
2018-08-03T15:22:43.184Z,32.44
2018-08-03T15:25:15.835Z,32.47
2018-08-03T15:27:47.385Z,32.57
2018-08-03T15:30:19.660Z,32.35
2018-08-03T15:32:51.803Z,32.16
2018-08-03T15:35:22.893Z,32.14
2018-08-03T15:37:54.614Z,32.04
2018-08-03T15:40:26.470Z,31.98
2018-08-03T15:42:57.979Z,31.91
2018-08-03T15:45:28.425Z,31.83
2018-08-03T15:47:59.641Z,31.70
2018-08-03T15:50:33.146Z,31.53
2018-08-03T15:53:05.949Z,31.42
2018-08-03T15:55:37.124Z,31.31
2018-08-03T15:58:09.150Z,31.14
2018-08-03T16:00:41.834Z,30.86
2018-08-03T16:03:12.789Z,30.84
2018-08-03T16:05:44.846Z,30.85
2018-08-03T16:08:16.824Z,30.77
2018-08-03T16:10:48.396Z,30.81
2018-08-03T16:13:19.220Z,30.68
2018-08-03T16:15:50.686Z,30.50
2018-08-03T16:18:22.714Z,30.51
2018-08-03T16:20:53.807Z,30.53
2018-08-03T16:23:24.611Z,30.35
2018-08-03T16:25:57.003Z,30.14
2018-08-03T16:28:30.079Z,29.39
2018-08-03T16:31:00.656Z,29.53
2018-08-03T16:33:32.567Z,29.46
2018-08-03T16:36:04.723Z,28.90
2018-08-03T16:38:36.145Z,28.59
2018-08-03T16:41:07.044Z,28.13
2018-08-03T16:43:37.792Z,27.94
2018-08-03T16:46:09.985Z,28.19
2018-08-03T16:48:42.350Z,28.19
2018-08-03T16:51:15.404Z,28.24
2018-08-03T16:53:46.797Z,28.01
2018-08-03T16:56:17.197Z,27.86
2018-08-03T16:58:50.029Z,27.93
2018-08-03T17:01:21.542Z,28.11
2018-08-03T17:03:53.575Z,28.10
2018-08-03T17:06:24.543Z,28.03
2018-08-03T17:08:55.272Z,27.78
2018-08-03T17:11:26.605Z,27.86
2018-08-03T17:13:59.401Z,27.89
2018-08-03T17:16:30.434Z,27.80
2018-08-03T17:19:04.302Z,27.74
2018-08-03T17:21:35.664Z,27.53
2018-08-03T17:24:06.834Z,27.48
2018-08-03T17:26:40.093Z,27.24
2018-08-03T17:29:10.997Z,27.04
2018-08-03T17:31:41.720Z,26.89
2018-08-03T17:34:14.209Z,26.84
2018-08-03T17:36:47.406Z,26.83
2018-08-03T17:39:18.423Z,26.64
2018-08-03T17:41:50.175Z,26.62
2018-08-03T17:44:21.839Z,26.75
2018-08-03T17:46:54.058Z,26.60
2018-08-03T17:49:25.828Z,26.51
2018-08-03T17:51:56.964Z,26.43
2018-08-03T17:54:28.455Z,26.48
2018-08-03T17:56:59.523Z,26.40
2018-08-03T17:59:31.855Z,26.34
2018-08-03T18:02:02.559Z,26.29
2018-08-03T18:04:34.661Z,26.16
2018-08-03T18:07:07.816Z,25.99
2018-08-03T18:09:38.787Z,26.02
2018-08-03T18:12:10.795Z,25.89
2018-08-03T18:14:41.701Z,25.90
2018-08-03T18:17:12.662Z,25.83
2018-08-03T18:19:43.522Z,25.81
2018-08-03T18:22:16.859Z,25.83
2018-08-03T18:24:48.710Z,25.82
2018-08-03T18:27:23.392Z,25.86
2018-08-03T18:29:57.522Z,25.85
2018-08-03T18:32:29.653Z,25.78
2018-08-03T18:35:00.802Z,25.77
2018-08-03T18:37:34.609Z,25.81
2018-08-03T18:40:07.355Z,25.71
2018-08-03T18:42:40.098Z,25.67
2018-08-03T18:45:11.788Z,25.68
2018-08-03T18:47:44.145Z,25.64
2018-08-03T18:50:15.467Z,25.65
2018-08-03T18:52:47.122Z,25.60
2018-08-03T18:55:19.871Z,25.57
2018-08-03T18:57:50.911Z,25.56
2018-08-03T19:00:31.112Z,25.53
2018-08-03T19:03:04.981Z,25.37
2018-08-03T19:05:37.305Z,25.32
2018-08-03T19:08:11.361Z,25.27
2018-08-03T19:10:43.895Z,25.26
2018-08-03T19:13:14.870Z,25.26
2018-08-03T19:15:46.914Z,25.27
2018-08-03T19:18:18.773Z,25.20
2018-08-03T19:20:49.685Z,25.14
2018-08-03T19:23:22.832Z,25.07
2018-08-03T19:25:58.186Z,24.95
2018-08-03T19:28:31.743Z,24.78
2018-08-03T19:31:15.648Z,24.71
2018-08-03T19:33:48.170Z,24.52
2018-08-03T19:36:22.510Z,24.37
2018-08-03T19:38:55.219Z,24.36
2018-08-03T19:41:27.870Z,24.30
2018-08-03T19:44:00.066Z,24.28
2018-08-03T19:46:35.034Z,24.24
2018-08-03T19:49:08.666Z,24.11
2018-08-03T19:51:48.189Z,24.01
2018-08-03T19:54:25.653Z,23.96
2018-08-03T19:56:57.427Z,23.83
2018-08-03T19:59:33.288Z,23.78
2018-08-03T20:02:10.691Z,23.75
2018-08-03T20:04:48.904Z,23.82
2018-08-03T20:07:29.807Z,23.77
2018-08-03T20:10:04.049Z,23.71
2018-08-03T20:12:41.085Z,23.69
2018-08-03T20:15:14.341Z,23.63
2018-08-03T20:17:50.553Z,23.57
2018-08-03T20:20:22.192Z,23.55
2018-08-03T20:22:54.476Z,23.55
2018-08-03T20:25:26.040Z,23.54
2018-08-03T20:27:57.949Z,23.52
2018-08-03T20:30:28.909Z,23.47
2018-08-03T20:33:01.314Z,23.39
2018-08-03T20:35:34.687Z,23.32
2018-08-03T20:38:06.558Z,23.31
2018-08-03T20:40:37.773Z,23.31
2018-08-03T20:43:09.947Z,23.35
2018-08-03T20:45:43.386Z,23.29
2018-08-03T20:48:16.763Z,23.22
2018-08-03T20:50:47.530Z,22.82
2018-08-03T20:53:20.937Z,22.52
2018-08-03T20:55:52.924Z,22.46
2018-08-03T20:58:24.189Z,22.43
2018-08-03T21:00:57.730Z,22.43
2018-08-03T21:03:30.060Z,22.47
2018-08-03T21:06:00.940Z,22.51
2018-08-03T21:08:31.942Z,22.52
2018-08-03T21:11:02.997Z,22.53
2018-08-03T21:13:34.890Z,22.53
2018-08-03T21:16:05.200Z,22.56
2018-08-03T21:18:36.135Z,22.56
2018-08-03T21:21:07.985Z,22.53
2018-08-03T21:23:38.690Z,22.51
2018-08-03T21:26:09.423Z,22.53
2018-08-03T21:28:41.306Z,22.52
2018-08-03T21:31:12.120Z,22.50
2018-08-03T21:33:44.182Z,22.48
2018-08-03T21:36:15.068Z,22.44
2018-08-03T21:38:45.749Z,22.35
2018-08-03T21:41:18.140Z,22.21
2018-08-03T21:43:48.882Z,22.05
2018-08-03T21:46:19.612Z,21.92
2018-08-03T21:48:50.815Z,21.80
2018-08-03T21:51:21.598Z,21.76
2018-08-03T21:53:54.068Z,21.71
2018-08-03T21:56:24.815Z,21.72
2018-08-03T21:58:55.505Z,21.70
2018-08-03T22:01:26.984Z,21.71
2018-08-03T22:03:57.204Z,21.74
2018-08-03T22:06:28.151Z,21.79
2018-08-03T22:08:59.046Z,21.83
2018-08-03T22:11:30.601Z,21.88
2018-08-03T22:14:01.394Z,21.95
2018-08-03T22:16:32.529Z,22.00
2018-08-03T22:19:03.606Z,22.01
2018-08-03T22:22:27.085Z,21.96
2018-08-03T22:24:57.901Z,21.94
2018-08-03T22:27:28.757Z,21.92
2018-08-03T22:29:59.287Z,21.93
2018-08-03T22:32:30.020Z,21.88
2018-08-03T22:35:00.839Z,21.77
2018-08-03T22:37:31.468Z,21.17
2018-08-03T22:40:02.197Z,20.80
2018-08-03T22:42:32.810Z,20.82
2018-08-03T22:45:03.725Z,20.88
2018-08-03T22:47:34.507Z,20.93
2018-08-03T22:50:05.057Z,20.97
2018-08-03T22:52:36.536Z,21.06
2018-08-03T22:55:07.826Z,21.13
2018-08-03T22:57:39.075Z,21.23
2018-08-03T23:00:10.548Z,21.24
2018-08-03T23:02:41.051Z,21.10
2018-08-03T23:05:11.610Z,21.04
2018-08-03T23:07:43.670Z,21.03
2018-08-03T23:10:14.317Z,21.01
2018-08-03T23:12:44.995Z,20.99
2018-08-03T23:15:15.595Z,21.00
2018-08-03T23:17:46.335Z,21.03
2018-08-03T23:20:16.931Z,21.03
2018-08-03T23:22:47.610Z,21.05
2018-08-03T23:25:18.599Z,21.06
2018-08-03T23:27:49.104Z,21.05
2018-08-03T23:30:19.775Z,21.08
2018-08-03T23:32:50.473Z,21.13
2018-08-03T23:35:21.146Z,21.15
2018-08-03T23:37:52.031Z,21.09
2018-08-03T23:40:23.932Z,21.09
2018-08-03T23:42:54.598Z,21.14
2018-08-03T23:45:25.088Z,21.21
2018-08-03T23:47:55.496Z,21.24
2018-08-03T23:50:26.824Z,21.20
2018-08-03T23:52:57.422Z,21.14
2018-08-03T23:55:27.979Z,21.13
2018-08-03T23:57:58.545Z,21.12
